M I D A S
Marine Information and Data Acquisition System
Tripno 861 of the Zeeleeuw from 2005-03-11 07:52:16 to 2005-03-11 13:55:14
Back to CruiseResearch ActivitiesStationsMapUnderway DataData graphs

EquipmentUnitsComments
TimeDGPSUTC
LatitudeDGPSDM.mWGS84
LongitudeDGPSDM.mWGS84
SpeedMeteo Stationm/sRelative wind speed
DirectionMeteo StationdegRelative wind direction
TemperatureMeteo Stationdeg CelciusAir temperature
PressureMeteo StationPaAtmospheric pressure
HumidityMeteo Station%Relative humidity
Missing or incorrect values are displayed as -999
Metereological data collected by the RV Zeeleeuw from 2005-03-11 07:53:12 to 2005-03-11 14:07:33
                                                                                    Next 1000 lines
Time Latitude Longitude Speed Direction Temperature Pressure Humidity
2005-03-11 07:53:20 51°13.592 2°56.104 7.3 136 5.1 101500 83
2005-03-11 07:53:27 51°13.591 2°56.106 6.2 134 5.1 101500 83
2005-03-11 07:53:32 51°13.589 2°56.109 6.9 134 5.1 101500 83
2005-03-11 07:53:36 51°13.588 2°56.113 9.9 158 5.1 101500 83
2005-03-11 07:53:42 51°13.586 2°56.117 9.4 129 5.1 101500 83
2005-03-11 07:53:46 51°13.583 2°56.122 7 159 5.1 101500 83
2005-03-11 07:53:51 51°13.58 2°56.128 3.9 136 5.1 101500 83
2005-03-11 07:53:56 51°13.577 2°56.135 5.5 150 5.1 101500 83
2005-03-11 07:54:01 51°13.574 2°56.141 4.8 141 5.1 101500 83
2005-03-11 07:54:06 51°13.57 2°56.148 5.1 141 5.1 101500 83
2005-03-11 07:54:11 51°13.567 2°56.153 5.8 122 5.1 101500 83
2005-03-11 07:54:16 51°13.564 2°56.159 5.3 111 5.1 101500 83
2005-03-11 07:54:20 51°13.561 2°56.164 5.7 105 5.1 101490 83
2005-03-11 07:54:26 51°13.557 2°56.17 5.7 93 5.1 101490 83
2005-03-11 07:54:31 51°13.553 2°56.175 8.1 126 5.1 101490 82
2005-03-11 07:54:37 51°13.548 2°56.181 7.4 106 5.1 101490 82
2005-03-11 07:54:41 51°13.544 2°56.184 6.2 95 5.1 101490 82
2005-03-11 07:54:46 51°13.54 2°56.187 6.4 91 5.1 101490 82
2005-03-11 07:54:51 51°13.536 2°56.19 7.1 107 5.1 101490 82
2005-03-11 07:54:56 51°13.533 2°56.191 5.3 131 5.1 101490 82
2005-03-11 07:55:02 51°13.531 2°56.192 5.7 116 5.1 101490 82
2005-03-11 07:55:06 51°13.529 2°56.193 6.9 95 5.1 101490 82
2005-03-11 07:55:11 51°13.528 2°56.193 4.1 106 5.1 101490 82
2005-03-11 07:55:16 51°13.528 2°56.193 5 87 5.1 101490 82
2005-03-11 07:55:21 51°13.529 2°56.193 7.9 84 5.1 101490 82
2005-03-11 07:55:26 51°13.53 2°56.193 7.8 65 5.1 101490 82
2005-03-11 07:55:30 51°13.531 2°56.194 4.5 119 5.1 101490 82
2005-03-11 07:55:36 51°13.534 2°56.195 4.2 114 5.1 101490 82
2005-03-11 07:55:42 51°13.536 2°56.195 5 137 5.1 101490 82
2005-03-11 07:55:46 51°13.538 2°56.195 7.6 59 5.1 101490 82
2005-03-11 07:55:52 51°13.539 2°56.195 3.6 65 5.1 101490 82
2005-03-11 07:55:56 51°13.539 2°56.195 4 68 5.1 101490 82
2005-03-11 07:56:01 51°13.539 2°56.195 4.8 73 5.1 101500 82
2005-03-11 07:56:06 51°13.538 2°56.194 4.4 38 5.1 101500 82
2005-03-11 07:56:12 51°13.536 2°56.193 4.5 87 5.1 101490 82
2005-03-11 07:56:16 51°13.534 2°56.192 4.8 61 5.1 101490 82
2005-03-11 07:56:22 51°13.533 2°56.191 4 83 5.1 101490 82
2005-03-11 07:56:26 51°13.533 2°56.191 4.5 91 5.1 101490 82
2005-03-11 07:56:32 51°13.534 2°56.192 7.7 90 5.1 101480 82
2005-03-11 07:56:37 51°13.535 2°56.193 8.5 43 5.1 101480 82
2005-03-11 07:56:41 51°13.536 2°56.195 7 33 5.1 101490 83
2005-03-11 07:56:46 51°13.538 2°56.197 7.2 76 5.1 101490 83
2005-03-11 07:56:52 51°13.54 2°56.199 8.1 36 5.1 101490 83
2005-03-11 07:56:57 51°13.542 2°56.201 8.8 41 5.1 101490 83
2005-03-11 07:57:02 51°13.543 2°56.202 8.2 55 5.1 101480 83
2005-03-11 07:57:06 51°13.543 2°56.202 8.4 46 5.1 101480 83
2005-03-11 07:57:12 51°13.542 2°56.2 8.1 41 5.1 101490 83
2005-03-11 07:57:17 51°13.54 2°56.197 9.2 31 5.1 101490 83
2005-03-11 07:57:22 51°13.539 2°56.193 6.7 32 5.1 101490 82
2005-03-11 07:57:26 51°13.538 2°56.191 9.6 15 5.1 101490 82
2005-03-11 07:57:32 51°13.537 2°56.189 7.2 22 5.1 101480 82
2005-03-11 07:57:36 51°13.536 2°56.189 6.7 27 5.1 101480 82
2005-03-11 07:57:42 51°13.536 2°56.189 8.6 21 5.1 101490 82
2005-03-11 07:57:46 51°13.537 2°56.19 7.9 2 5.1 101490 82
2005-03-11 07:57:50 51°13.537 2°56.192 8.7 15 5.1 101490 82
2005-03-11 07:57:56 51°13.538 2°56.196 6.8 5 5.1 101490 82
2005-03-11 07:58:02 51°13.539 2°56.201 6 352 5.1 101490 82
2005-03-11 07:58:06 51°13.54 2°56.204 4.9 12 5.1 101490 82
2005-03-11 07:58:12 51°13.54 2°56.206 5.4 -999 5.1 101500 82
2005-03-11 07:58:17 51°13.541 2°56.206 6.4 26 5.1 101500 82
2005-03-11 07:58:22 51°13.54 2°56.204 6.8 31 5.1 101490 82
2005-03-11 07:58:26 51°13.54 2°56.201 6.9 2 5.1 101490 82
2005-03-11 07:58:32 51°13.54 2°56.196 5 348 5.1 101490 82
2005-03-11 07:58:36 51°13.54 2°56.192 5.3 15 5.1 101490 82
2005-03-11 07:58:42 51°13.54 2°56.186 7 344 5.1 101490 82
2005-03-11 07:58:46 51°13.541 2°56.18 5.3 357 5.1 101490 82
2005-03-11 07:58:52 51°13.543 2°56.172 7.1 318 5.1 101490 82
2005-03-11 07:58:56 51°13.545 2°56.166 6.6 323 5.1 101490 82
2005-03-11 07:59:01 51°13.548 2°56.16 5.1 331 5.1 101490 82
2005-03-11 07:59:06 51°13.552 2°56.151 5.7 327 5.1 101490 82
2005-03-11 07:59:10 51°13.554 2°56.146 7.9 356 5.1 101490 82
2005-03-11 07:59:16 51°13.559 2°56.135 7.2 338 5.1 101490 82
2005-03-11 07:59:21 51°13.563 2°56.126 8.7 310 5.1 101490 82
2005-03-11 07:59:26 51°13.567 2°56.117 8.3 323 5.1 101490 82
2005-03-11 07:59:31 51°13.572 2°56.106 6.3 8 5.1 101490 82
2005-03-11 07:59:36 51°13.576 2°56.097 8.9 342 5.1 101490 82
2005-03-11 07:59:40 51°13.58 2°56.088 10 350 5.1 101490 82
2005-03-11 07:59:46 51°13.586 2°56.075 7.5 330 5.1 101490 82
2005-03-11 07:59:51 51°13.59 2°56.064 8.2 334 5.1 101490 82
2005-03-11 07:59:56 51°13.595 2°56.053 9.3 327 5.1 101490 82
2005-03-11 08:00:01 51°13.6 2°56.041 7.9 349 5.1 101490 82
2005-03-11 08:00:06 51°13.605 2°56.031 8.4 351 5.1 101490 82
2005-03-11 08:00:11 51°13.609 2°56.019 12.6 12 5.2 101490 82
2005-03-11 08:00:16 51°13.615 2°56.006 9.7 4 5.2 101490 82
2005-03-11 08:00:21 51°13.621 2°55.994 11.2 336 5.2 101490 82
2005-03-11 08:00:26 51°13.626 2°55.982 7.9 328 5.2 101490 82
2005-03-11 08:00:30 51°13.63 2°55.974 11.8 348 5.2 101490 82
2005-03-11 08:00:36 51°13.637 2°55.959 9.2 353 5.2 101490 82
2005-03-11 08:00:41 51°13.642 2°55.948 10.9 345 5.1 101490 82
2005-03-11 08:00:46 51°13.648 2°55.934 11.8 340 5.1 101490 82
2005-03-11 08:00:51 51°13.653 2°55.922 16.5 322 5.2 101480 82
2005-03-11 08:00:56 51°13.658 2°55.909 10.9 317 5.2 101480 82
2005-03-11 08:01:01 51°13.663 2°55.896 10.7 338 5.2 101480 82
2005-03-11 08:01:06 51°13.668 2°55.884 8.6 305 5.2 101480 82
2005-03-11 08:01:12 51°13.674 2°55.87 6.5 327 5.1 101480 82
2005-03-11 08:01:16 51°13.678 2°55.858 7.4 326 5.1 101480 82
2005-03-11 08:01:20 51°13.682 2°55.848 7.9 326 5.2 101470 82
2005-03-11 08:01:25 51°13.687 2°55.835 7.5 354 5.2 101470 82
2005-03-11 08:01:31 51°13.694 2°55.819 9.4 343 5.2 101470 82
2005-03-11 08:01:36 51°13.699 2°55.806 10.7 355 5.2 101470 82
2005-03-11 08:01:42 51°13.705 2°55.792 9.3 343 5.2 101480 82
2005-03-11 08:01:46 51°13.711 2°55.78 7.2 347 5.2 101480 82
2005-03-11 08:01:50 51°13.715 2°55.772 7.5 338 5.2 101490 82
2005-03-11 08:01:56 51°13.723 2°55.755 7.2 336 5.2 101490 82
2005-03-11 08:02:02 51°13.73 2°55.742 8.3 316 5.2 101490 82
2005-03-11 08:02:07 51°13.738 2°55.729 7.2 334 5.2 101490 82
2005-03-11 08:02:12 51°13.744 2°55.719 6.4 31 5.2 101480 82
2005-03-11 08:02:16 51°13.75 2°55.709 5.1 302 5.2 101480 82
2005-03-11 08:02:22 51°13.758 2°55.697 6.5 331 5.2 101480 82
2005-03-11 08:02:27 51°13.766 2°55.687 8.6 343 5.2 101480 82
2005-03-11 08:02:32 51°13.774 2°55.678 7.9 233 5.2 101490 82
2005-03-11 08:02:37 51°13.782 2°55.67 9.4 247 5.2 101490 82
2005-03-11 08:02:42 51°13.791 2°55.662 7.8 301 5.2 101490 82
2005-03-11 08:02:47 51°13.8 2°55.653 3.7 296 5.2 101490 82
2005-03-11 08:02:52 51°13.808 2°55.647 5.1 332 5.2 101490 82
2005-03-11 08:02:56 51°13.816 2°55.64 8.9 328 5.2 101490 82
2005-03-11 08:03:02 51°13.825 2°55.632 5.3 292 5.2 101490 82
2005-03-11 08:03:06 51°13.834 2°55.626 4.9 337 5.2 101490 82
2005-03-11 08:03:12 51°13.844 2°55.619 8.5 298 5.2 101490 82
2005-03-11 08:03:17 51°13.853 2°55.612 5.7 349 5.2 101490 82
2005-03-11 08:03:21 51°13.861 2°55.606 4.1 346 5.2 101490 82
2005-03-11 08:03:26 51°13.87 2°55.599 4.8 359 5.2 101490 82
2005-03-11 08:03:32 51°13.881 2°55.591 6.3 311 5.2 101480 82
2005-03-11 08:03:36 51°13.889 2°55.586 5.9 314 5.2 101480 82
2005-03-11 08:03:41 51°13.898 2°55.58 5.3 328 5.2 101490 82
2005-03-11 08:03:46 51°13.907 2°55.574 3.4 341 5.2 101490 82
2005-03-11 08:03:51 51°13.916 2°55.568 4.2 325 5.2 101490 82
2005-03-11 08:03:56 51°13.927 2°55.561 5.1 316 5.2 101490 82
2005-03-11 08:04:01 51°13.935 2°55.555 5.7 320 5.2 101490 82
2005-03-11 08:04:06 51°13.945 2°55.548 5.1 288 5.2 101490 82
2005-03-11 08:04:10 51°13.953 2°55.542 3.9 309 5.2 101490 82
2005-03-11 08:04:16 51°13.965 2°55.534 7.8 231 5.2 101490 82
2005-03-11 08:04:20 51°13.972 2°55.529 7.6 327 5.2 101490 82
2005-03-11 08:04:27 51°13.985 2°55.52 9.8 341 5.2 101490 82
2005-03-11 08:04:32 51°13.994 2°55.514 6.3 348 5.2 101490 82
2005-03-11 08:04:36 51°14.002 2°55.508 5.3 346 5.2 101490 82
2005-03-11 08:04:42 51°14.012 2°55.5 5.5 332 5.2 101490 82
2005-03-11 08:04:45 51°14.019 2°55.496 5.5 310 5.2 101490 82
2005-03-11 08:04:50 51°14.028 2°55.489 5.2 318 5.2 101490 82
2005-03-11 08:04:56 51°14.04 2°55.48 4.7 317 5.2 101490 82
2005-03-11 08:05:01 51°14.049 2°55.474 4.4 42 5.2 101480 82
2005-03-11 08:05:07 51°14.061 2°55.465 6.3 331 5.2 101480 82
2005-03-11 08:05:11 51°14.069 2°55.459 8.1 41 5.2 101490 82
2005-03-11 08:05:16 51°14.079 2°55.451 6.3 306 5.2 101490 82
2005-03-11 08:05:21 51°14.09 2°55.443 5.3 329 5.2 101490 82
2005-03-11 08:05:26 51°14.099 2°55.436 3.7 328 5.2 101490 82
2005-03-11 08:05:31 51°14.11 2°55.428 6.9 337 5.2 101480 82
2005-03-11 08:05:36 51°14.121 2°55.419 14 322 5.2 101480 82
2005-03-11 08:05:41 51°14.132 2°55.412 11.9 321 5.2 101490 82
2005-03-11 08:05:46 51°14.142 2°55.404 13.1 230 5.2 101490 82
2005-03-11 08:05:51 51°14.154 2°55.394 11.8 232 5.2 101490 82
2005-03-11 08:05:57 51°14.168 2°55.382 11.3 301 5.2 101490 82
2005-03-11 08:06:02 51°14.178 2°55.372 9.6 315 5.1 101480 82
2005-03-11 08:06:06 51°14.187 2°55.363 7.9 38 5.1 101480 82
2005-03-11 08:06:11 51°14.199 2°55.35 10.9 227 5.1 101460 82
2005-03-11 08:06:16 51°14.209 2°55.339 15.4 323 5.1 101460 82
2005-03-11 08:06:22 51°14.222 2°55.323 15.1 315 5.1 101480 82
2005-03-11 08:06:26 51°14.231 2°55.312 14.2 229 5.1 101480 82
2005-03-11 08:06:32 51°14.243 2°55.295 12.1 326 5.1 101480 82
2005-03-11 08:06:36 51°14.252 2°55.281 14.2 327 5.1 101480 82
2005-03-11 08:06:41 51°14.262 2°55.266 13.6 318 5.1 101480 82
2005-03-11 08:06:46 51°14.271 2°55.251 12.2 28 5.1 101480 82
2005-03-11 08:06:51 51°14.281 2°55.234 11.3 319 5.1 101460 82
2005-03-11 08:06:56 51°14.291 2°55.216 13 318 5.1 101460 82
2005-03-11 08:07:00 51°14.298 2°55.202 13.3 321 5.1 101460 82
2005-03-11 08:07:07 51°14.31 2°55.179 9.7 335 5.1 101460 82
2005-03-11 08:07:11 51°14.319 2°55.163 11.2 329 5.1 101460 82
2005-03-11 08:07:16 51°14.327 2°55.147 13.4 329 5.1 101460 82
2005-03-11 08:07:21 51°14.336 2°55.128 16.6 335 5 101460 82
2005-03-11 08:07:26 51°14.344 2°55.112 14.7 327 5 101460 82
2005-03-11 08:07:31 51°14.354 2°55.091 15.7 320 5 101470 82
2005-03-11 08:07:36 51°14.362 2°55.072 15.9 322 5 101470 82
2005-03-11 08:07:41 51°14.37 2°55.053 16.2 334 5 101460 82
2005-03-11 08:07:46 51°14.376 2°55.034 15.8 330 5 101460 82
2005-03-11 08:07:52 51°14.384 2°55.009 18.1 332 5 101450 83
2005-03-11 08:07:56 51°14.39 2°54.989 17.2 334 5 101450 83
2005-03-11 08:08:01 51°14.395 2°54.966 15.2 334 4.9 101430 83
2005-03-11 08:08:06 51°14.4 2°54.946 17 338 4.9 101430 83
2005-03-11 08:08:11 51°14.404 2°54.919 17.2 342 4.9 101430 83
2005-03-11 08:08:16 51°14.408 2°54.895 18.2 339 4.9 101430 83
2005-03-11 08:08:21 51°14.411 2°54.87 19.2 340 4.9 101420 83
2005-03-11 08:08:26 51°14.414 2°54.846 17.5 343 4.9 101420 83
2005-03-11 08:08:30 51°14.416 2°54.826 16.4 344 4.9 101430 83
2005-03-11 08:08:36 51°14.42 2°54.791 18.3 347 4.9 101430 83
2005-03-11 08:08:41 51°14.421 2°54.766 18.8 349 4.9 101430 83
2005-03-11 08:08:46 51°14.423 2°54.739 17.5 345 4.9 101430 83
2005-03-11 08:08:51 51°14.423 2°54.708 20.1 353 4.9 101430 83
2005-03-11 08:08:56 51°14.424 2°54.682 16 352 4.9 101430 83
2005-03-11 08:09:01 51°14.423 2°54.651 17.1 351 4.8 101420 83
2005-03-11 08:09:06 51°14.423 2°54.625 17.7 353 4.8 101420 83
2005-03-11 08:09:10 51°14.421 2°54.601 19 347 4.8 101430 84
2005-03-11 08:09:16 51°14.421 2°54.566 18.3 351 4.8 101430 84
2005-03-11 08:09:21 51°14.419 2°54.533 17.9 356 4.8 101420 84
2005-03-11 08:09:26 51°14.419 2°54.507 18.5 351 4.8 101420 84
2005-03-11 08:09:30 51°14.417 2°54.483 19.5 353 4.8 101440 84
2005-03-11 08:09:36 51°14.414 2°54.444 21.2 357 4.8 101440 84
2005-03-11 08:09:40 51°14.41 2°54.421 19.7 1 4.8 101400 84
2005-03-11 08:09:46 51°14.405 2°54.389 18.6 4 4.8 101400 84
2005-03-11 08:09:52 51°14.398 2°54.355 19.8 1 4.8 101440 84
2005-03-11 08:09:56 51°14.392 2°54.329 19.2 7 4.8 101440 84
2005-03-11 08:10:01 51°14.386 2°54.303 19.2 3 4.8 101420 84
2005-03-11 08:10:06 51°14.379 2°54.276 19.7 11 4.8 101420 84
2005-03-11 08:10:10 51°14.373 2°54.254 17.6 5 4.8 101410 84
2005-03-11 08:10:16 51°14.363 2°54.217 19.9 7 4.8 101410 84
2005-03-11 08:10:21 51°14.355 2°54.19 20.9 8 4.8 101450 84
2005-03-11 08:10:26 51°14.348 2°54.164 18.7 6 4.8 101450 84
2005-03-11 08:10:31 51°14.339 2°54.134 18 1 4.8 101460 84
2005-03-11 08:10:36 51°14.332 2°54.105 18.5 2 4.8 101460 84
2005-03-11 08:10:40 51°14.326 2°54.083 20 2 4.8 101460 84
2005-03-11 08:10:46 51°14.317 2°54.048 19.6 3 4.8 101460 84
2005-03-11 08:10:50 51°14.313 2°54.028 18.3 7 4.8 101460 84
2005-03-11 08:10:56 51°14.304 2°53.991 19.8 7 4.8 101460 84
2005-03-11 08:11:02 51°14.295 2°53.96 18.6 8 4.8 101460 84
2005-03-11 08:11:07 51°14.286 2°53.932 19.5 11 4.8 101460 84
2005-03-11 08:11:11 51°14.277 2°53.908 20.2 9 4.8 101440 84
2005-03-11 08:11:16 51°14.267 2°53.882 18.2 13 4.8 101440 84
2005-03-11 08:11:21 51°14.257 2°53.858 18.6 13 4.8 101460 84
2005-03-11 08:11:26 51°14.246 2°53.833 18.4 17 4.8 101460 84
2005-03-11 08:11:30 51°14.237 2°53.813 20.8 16 4.8 101450 85
2005-03-11 08:11:36 51°14.222 2°53.78 19.2 17 4.8 101450 85
2005-03-11 08:11:40 51°14.213 2°53.76 17.7 15 4.8 101460 85
2005-03-11 08:11:45 51°14.202 2°53.735 19.8 13 4.8 101460 85
2005-03-11 08:11:50 51°14.192 2°53.711 19.8 12 4.8 101460 85
2005-03-11 08:11:56 51°14.179 2°53.68 19.3 11 4.8 101460 85
2005-03-11 08:12:00 51°14.171 2°53.659 19.6 14 4.8 101450 85
2005-03-11 08:12:06 51°14.159 2°53.627 19.2 11 4.8 101450 85
2005-03-11 08:12:12 51°14.147 2°53.595 18.8 9 4.8 101460 85
2005-03-11 08:12:16 51°14.138 2°53.571 17.5 -999 4.8 101460 85
2005-03-11 08:12:21 51°14.127 2°53.544 19.5 14 4.8 101450 85
2005-03-11 08:12:27 51°14.116 2°53.515 18.6 14 4.8 101450 85
2005-03-11 08:12:30 51°14.108 2°53.496 18.6 13 4.7 101450 85
2005-03-11 08:12:36 51°14.095 2°53.465 16.9 14 4.7 101450 85
2005-03-11 08:12:42 51°14.083 2°53.436 18.4 14 4.7 101460 85
2005-03-11 08:12:46 51°14.074 2°53.416 19.2 15 4.7 101460 85
2005-03-11 08:12:51 51°14.062 2°53.387 17.8 13 4.8 101430 85
2005-03-11 08:12:56 51°14.052 2°53.363 20.2 14 4.8 101430 85
2005-03-11 08:13:02 51°14.038 2°53.333 18.9 13 4.7 101470 85
2005-03-11 08:13:06 51°14.028 2°53.308 18.4 15 4.7 101470 85
2005-03-11 08:13:11 51°14.018 2°53.284 19.8 13 4.7 101460 85
2005-03-11 08:13:16 51°14.007 2°53.255 18.7 16 4.7 101460 85
2005-03-11 08:13:21 51°13.997 2°53.23 18.9 12 4.7 101450 85
2005-03-11 08:13:25 51°13.988 2°53.206 19 18 4.7 101450 85
2005-03-11 08:13:30 51°13.979 2°53.181 19.5 11 4.7 101470 85
2005-03-11 08:13:36 51°13.966 2°53.145 19 11 4.7 101470 85
2005-03-11 08:13:41 51°13.956 2°53.121 17.2 11 4.7 101460 85
2005-03-11 08:13:46 51°13.946 2°53.094 16.7 7 4.7 101460 85
2005-03-11 08:13:52 51°13.932 2°53.061 18.2 12 4.7 101460 85
2005-03-11 08:13:56 51°13.923 2°53.04 18.1 14 4.7 101460 85
2005-03-11 08:14:00 51°13.913 2°53.016 17.7 15 4.7 101460 85
2005-03-11 08:14:05 51°13.902 2°52.989 18.7 10 4.7 101460 85
2005-03-11 08:14:12 51°13.887 2°52.954 17.7 11 4.7 101450 85
2005-03-11 08:14:16 51°13.877 2°52.93 17.7 10 4.7 101450 85
2005-03-11 08:14:22 51°13.865 2°52.901 18.8 9 4.7 101460 85
2005-03-11 08:14:26 51°13.857 2°52.879 19.8 10 4.7 101460 85
2005-03-11 08:14:31 51°13.845 2°52.849 18.6 9 4.7 101460 85
2005-03-11 08:14:36 51°13.834 2°52.821 18.3 10 4.7 101460 85
2005-03-11 08:14:41 51°13.823 2°52.794 19.7 7 4.7 101450 85
2005-03-11 08:14:46 51°13.814 2°52.77 19.7 12 4.7 101450 85
2005-03-11 08:14:52 51°13.801 2°52.737 20.5 12 4.7 101460 85
2005-03-11 08:14:56 51°13.791 2°52.712 18.6 5 4.7 101460 85
2005-03-11 08:15:01 51°13.782 2°52.687 18.9 11 4.7 101460 85
2005-03-11 08:15:06 51°13.769 2°52.657 18.3 12 4.7 101460 85
2005-03-11 08:15:12 51°13.758 2°52.628 18.3 11 4.7 101450 85
2005-03-11 08:15:16 51°13.748 2°52.604 19.8 11 4.7 101450 85
2005-03-11 08:15:21 51°13.737 2°52.576 17.7 10 4.7 101470 85
2005-03-11 08:15:26 51°13.727 2°52.551 18.3 9 4.7 101470 85
2005-03-11 08:15:30 51°13.719 2°52.529 17.7 8 4.7 101460 85
2005-03-11 08:15:36 51°13.706 2°52.496 17.3 11 4.7 101460 85
2005-03-11 08:15:41 51°13.694 2°52.466 17.3 10 4.7 101460 85
2005-03-11 08:15:45 51°13.686 2°52.443 19 12 4.7 101460 85
2005-03-11 08:15:50 51°13.676 2°52.418 18.9 11 4.7 101460 86
2005-03-11 08:15:56 51°13.663 2°52.382 16.4 10 4.7 101460 86
2005-03-11 08:16:01 51°13.653 2°52.356 19.6 9 4.7 101460 86
2005-03-11 08:16:06 51°13.643 2°52.329 17.8 9 4.7 101460 86
2005-03-11 08:16:12 51°13.63 2°52.295 18 14 4.7 101470 86
2005-03-11 08:16:16 51°13.62 2°52.271 18.5 8 4.7 101470 86
2005-03-11 08:16:20 51°13.611 2°52.248 20.7 12 4.7 101450 86
2005-03-11 08:16:26 51°13.597 2°52.215 20.4 13 4.7 101450 86
2005-03-11 08:16:31 51°13.586 2°52.188 19.1 11 4.7 101450 86
2005-03-11 08:16:36 51°13.575 2°52.161 18.9 10 4.7 101450 86
2005-03-11 08:16:41 51°13.565 2°52.136 18.1 10 4.7 101470 86
2005-03-11 08:16:47 51°13.552 2°52.103 19 11 4.7 101470 86
2005-03-11 08:16:51 51°13.542 2°52.078 18.2 10 4.7 101450 86
2005-03-11 08:16:56 51°13.531 2°52.05 19.3 8 4.7 101450 86
2005-03-11 08:17:01 51°13.521 2°52.022 19.1 7 4.7 101460 86
2005-03-11 08:17:06 51°13.511 2°51.997 19.1 11 4.7 101460 86
2005-03-11 08:17:10 51°13.502 2°51.975 20.7 15 4.7 101460 86
2005-03-11 08:17:16 51°13.488 2°51.939 18.3 6 4.7 101460 86
2005-03-11 08:17:20 51°13.48 2°51.917 18.5 10 4.7 101440 86
2005-03-11 08:17:25 51°13.469 2°51.889 19.3 8 4.7 101440 86
2005-03-11 08:17:31 51°13.457 2°51.858 19 11 4.7 101460 86
2005-03-11 08:17:36 51°13.445 2°51.828 19.2 15 4.7 101460 86
2005-03-11 08:17:41 51°13.434 2°51.801 19.5 8 4.7 101460 86
2005-03-11 08:17:46 51°13.423 2°51.772 20.1 10 4.7 101460 86
2005-03-11 08:17:51 51°13.413 2°51.745 19.3 6 4.7 101450 86
2005-03-11 08:17:56 51°13.403 2°51.72 18.7 6 4.7 101450 86
2005-03-11 08:18:01 51°13.391 2°51.689 17.6 10 4.7 101440 86
2005-03-11 08:18:07 51°13.379 2°51.659 19.3 13 4.7 101440 86
2005-03-11 08:18:10 51°13.373 2°51.642 20.6 9 4.7 101440 86
2005-03-11 08:18:16 51°13.359 2°51.606 21 12 4.7 101440 86
2005-03-11 08:18:21 51°13.348 2°51.579 19.5 6 4.7 101450 86
2005-03-11 08:18:26 51°13.337 2°51.554 20.6 12 4.7 101450 86
2005-03-11 08:18:31 51°13.326 2°51.524 19 12 4.7 101450 86
2005-03-11 08:18:36 51°13.316 2°51.499 18.6 9 4.7 101450 86
2005-03-11 08:18:41 51°13.304 2°51.468 18.7 10 4.7 101470 86
2005-03-11 08:18:46 51°13.294 2°51.444 19.9 11 4.7 101470 86
2005-03-11 08:18:51 51°13.282 2°51.413 20.1 12 4.7 101440 85
2005-03-11 08:18:56 51°13.271 2°51.385 19.6 10 4.7 101440 85
2005-03-11 08:19:01 51°13.261 2°51.36 19 14 4.7 101440 85
2005-03-11 08:19:06 51°13.251 2°51.333 19.8 16 4.7 101440 85
2005-03-11 08:19:11 51°13.24 2°51.305 19.2 12 4.7 101450 85
2005-03-11 08:19:16 51°13.228 2°51.274 19.3 15 4.7 101450 85
2005-03-11 08:19:20 51°13.219 2°51.252 18.7 14 4.7 101440 85
2005-03-11 08:19:26 51°13.206 2°51.218 18.1 14 4.7 101440 85
2005-03-11 08:19:30 51°13.198 2°51.199 20.3 8 4.7 101460 85
2005-03-11 08:19:36 51°13.184 2°51.163 18.8 15 4.7 101460 85
2005-03-11 08:19:41 51°13.174 2°51.138 17.4 11 4.7 101450 85
2005-03-11 08:19:46 51°13.163 2°51.111 18.7 17 4.7 101450 85
2005-03-11 08:19:51 51°13.152 2°51.083 18.5 14 4.7 101450 85
2005-03-11 08:19:56 51°13.14 2°51.052 17.5 12 4.7 101450 85
2005-03-11 08:20:02 51°13.128 2°51.022 18.2 10 4.7 101440 85
2005-03-11 08:20:06 51°13.12 2°51 20.4 13 4.7 101440 85
2005-03-11 08:20:11 51°13.108 2°50.969 19.1 14 4.7 101450 85
2005-03-11 08:20:16 51°13.097 2°50.941 18.5 11 4.7 101450 85
2005-03-11 08:20:20 51°13.088 2°50.918 19.8 11 4.7 101460 85
2005-03-11 08:20:25 51°13.078 2°50.89 17.8 9 4.7 101460 85
2005-03-11 08:20:31 51°13.065 2°50.857 20.1 9 4.7 101450 85
2005-03-11 08:20:36 51°13.054 2°50.828 18.7 11 4.7 101450 85
2005-03-11 08:20:40 51°13.046 2°50.806 19.6 13 4.7 101450 85
2005-03-11 08:20:46 51°13.033 2°50.771 20 11 4.7 101450 85
2005-03-11 08:20:52 51°13.021 2°50.741 18.8 11 4.7 101430 85
2005-03-11 08:20:56 51°13.013 2°50.718 17.8 9 4.7 101430 85
2005-03-11 08:21:00 51°13.004 2°50.692 20 9 4.7 101440 85
2005-03-11 08:21:06 51°12.992 2°50.661 19.6 11 4.7 101440 85
2005-03-11 08:21:10 51°12.984 2°50.638 19.6 9 4.7 101440 85
2005-03-11 08:21:16 51°12.971 2°50.601 18 4 4.7 101440 85
2005-03-11 08:21:20 51°12.963 2°50.578 19.4 8 4.7 101450 85
2005-03-11 08:21:26 51°12.95 2°50.543 20.4 12 4.7 101450 85
2005-03-11 08:21:32 51°12.938 2°50.512 18.7 10 4.7 101440 85
2005-03-11 08:21:36 51°12.929 2°50.487 18.6 14 4.7 101440 85
2005-03-11 08:21:41 51°12.918 2°50.459 19.4 11 4.7 101450 85
2005-03-11 08:21:46 51°12.908 2°50.434 19.5 11 4.7 101450 85
2005-03-11 08:21:52 51°12.895 2°50.4 19.1 12 4.7 101440 85
2005-03-11 08:21:56 51°12.886 2°50.375 18.7 13 4.7 101440 85
2005-03-11 08:22:01 51°12.876 2°50.349 18.7 12 4.7 101450 86
2005-03-11 08:22:05 51°12.867 2°50.324 16.6 13 4.7 101450 86
2005-03-11 08:22:11 51°12.855 2°50.293 18.7 12 4.7 101430 86
2005-03-11 08:22:16 51°12.843 2°50.262 18.6 12 4.7 101430 86
2005-03-11 08:22:21 51°12.834 2°50.236 18.4 6 4.7 101440 85
2005-03-11 08:22:26 51°12.822 2°50.204 17.6 15 4.7 101440 85
2005-03-11 08:22:31 51°12.811 2°50.176 18.3 12 4.7 101450 85
2005-03-11 08:22:36 51°12.801 2°50.148 17.9 9 4.7 101450 85
2005-03-11 08:22:42 51°12.789 2°50.117 18.8 15 4.7 101450 86
2005-03-11 08:22:46 51°12.781 2°50.094 18.5 9 4.7 101450 86
2005-03-11 08:22:50 51°12.772 2°50.071 20.3 13 4.7 101450 86
2005-03-11 08:22:56 51°12.759 2°50.034 20.1 14 4.7 101450 86
2005-03-11 08:23:02 51°12.747 2°50.003 17.9 11 4.7 101440 86
2005-03-11 08:23:06 51°12.739 2°49.981 17.9 13 4.7 101440 86
2005-03-11 08:23:10 51°12.731 2°49.958 18 12 4.7 101450 86
2005-03-11 08:23:16 51°12.717 2°49.92 19.5 9 4.7 101450 86
2005-03-11 08:23:21 51°12.708 2°49.895 20.1 14 4.7 101460 86
2005-03-11 08:23:27 51°12.695 2°49.861 19.5 11 4.7 101460 86
2005-03-11 08:23:32 51°12.684 2°49.832 20.4 14 4.7 101450 86
2005-03-11 08:23:37 51°12.674 2°49.804 19.4 15 4.7 101450 86
2005-03-11 08:23:42 51°12.663 2°49.775 18.9 14 4.7 101450 86
2005-03-11 08:23:46 51°12.655 2°49.752 18.6 10 4.7 101450 86
2005-03-11 08:23:51 51°12.643 2°49.721 19.3 14 4.7 101440 86
2005-03-11 08:23:56 51°12.633 2°49.693 19.3 14 4.7 101440 86
2005-03-11 08:24:01 51°12.624 2°49.667 17.6 12 4.7 101450 86
2005-03-11 08:24:05 51°12.614 2°49.641 18.9 11 4.7 101450 86
2005-03-11 08:24:11 51°12.602 2°49.607 17.6 10 4.7 101450 86
2005-03-11 08:24:16 51°12.591 2°49.578 19.5 12 4.7 101450 86
2005-03-11 08:24:21 51°12.582 2°49.55 19.2 8 4.7 101450 86
2005-03-11 08:24:26 51°12.573 2°49.524 19.8 11 4.7 101450 86
2005-03-11 08:24:31 51°12.561 2°49.493 18.4 14 4.7 101450 86
2005-03-11 08:24:36 51°12.55 2°49.464 18.2 10 4.7 101450 86
2005-03-11 08:24:41 51°12.54 2°49.436 18.8 13 4.7 101450 86
2005-03-11 08:24:46 51°12.53 2°49.41 18.7 11 4.7 101450 86
2005-03-11 08:24:50 51°12.521 2°49.387 18.6 14 4.7 101450 86
2005-03-11 08:24:56 51°12.508 2°49.35 18.7 12 4.7 101450 86
2005-03-11 08:25:00 51°12.499 2°49.328 19.9 12 4.7 101470 86
2005-03-11 08:25:06 51°12.486 2°49.293 19.1 10 4.7 101470 86
2005-03-11 08:25:10 51°12.479 2°49.273 19.3 9 4.7 101440 86
2005-03-11 08:25:16 51°12.465 2°49.236 18.8 12 4.7 101440 86
2005-03-11 08:25:20 51°12.457 2°49.213 19.6 11 4.7 101440 86
2005-03-11 08:25:26 51°12.444 2°49.179 18.6 13 4.7 101440 86
2005-03-11 08:25:32 51°12.433 2°49.148 20.5 13 4.7 101450 86
2005-03-11 08:25:36 51°12.424 2°49.122 19.3 12 4.7 101450 86
2005-03-11 08:25:41 51°12.415 2°49.096 19.7 12 4.7 101450 86
2005-03-11 08:25:46 51°12.404 2°49.068 19.5 13 4.7 101450 86
2005-03-11 08:25:51 51°12.393 2°49.037 19.8 11 4.7 101450 86
2005-03-11 08:25:56 51°12.382 2°49.008 18.8 11 4.7 101450 86
2005-03-11 08:26:00 51°12.374 2°48.985 18.2 13 4.7 101440 86
2005-03-11 08:26:05 51°12.363 2°48.957 19.6 12 4.7 101440 86
2005-03-11 08:26:11 51°12.352 2°48.925 19 9 4.7 101440 86
2005-03-11 08:26:16 51°12.34 2°48.894 20.6 11 4.7 101440 86
2005-03-11 08:26:20 51°12.332 2°48.871 18.9 11 4.7 101440 86
2005-03-11 08:26:26 51°12.32 2°48.84 18.1 11 4.7 101440 86
2005-03-11 08:26:31 51°12.309 2°48.808 20.1 10 4.7 101450 86
2005-03-11 08:26:36 51°12.3 2°48.783 18.4 12 4.7 101450 86
2005-03-11 08:26:41 51°12.288 2°48.751 17.6 11 4.7 101450 86
2005-03-11 08:26:46 51°12.278 2°48.725 16.6 11 4.7 101450 86
2005-03-11 08:26:51 51°12.268 2°48.696 19.5 11 4.7 101460 86
2005-03-11 08:26:56 51°12.257 2°48.665 19.6 10 4.7 101460 86
2005-03-11 08:27:02 51°12.245 2°48.634 18.5 12 4.7 101450 86
2005-03-11 08:27:06 51°12.236 2°48.611 20.1 11 4.7 101450 86
2005-03-11 08:27:11 51°12.225 2°48.58 17.2 5 4.7 101450 86
2005-03-11 08:27:16 51°12.215 2°48.554 17.4 13 4.7 101450 86
2005-03-11 08:27:21 51°12.205 2°48.525 18 7 4.7 101440 86
2005-03-11 08:27:26 51°12.195 2°48.497 18.7 9 4.7 101440 86
2005-03-11 08:27:30 51°12.185 2°48.471 18.5 11 4.7 101440 86
2005-03-11 08:27:36 51°12.174 2°48.44 19.5 11 4.7 101440 86
2005-03-11 08:27:42 51°12.161 2°48.405 17.5 8 4.7 101450 86
2005-03-11 08:27:46 51°12.153 2°48.382 17.7 11 4.7 101450 86
2005-03-11 08:27:51 51°12.142 2°48.351 19 11 4.7 101450 86
2005-03-11 08:27:56 51°12.132 2°48.322 19.3 10 4.7 101450 86
2005-03-11 08:28:01 51°12.122 2°48.296 20 9 4.7 101450 86
2005-03-11 08:28:06 51°12.112 2°48.268 18.2 13 4.7 101450 86
2005-03-11 08:28:11 51°12.1 2°48.236 18.8 11 4.7 101450 86
2005-03-11 08:28:16 51°12.09 2°48.207 19 12 4.7 101450 86
2005-03-11 08:28:20 51°12.082 2°48.185 18.7 14 4.7 101450 86
2005-03-11 08:28:26 51°12.069 2°48.15 17.5 9 4.7 101450 86
2005-03-11 08:28:31 51°12.059 2°48.122 18 15 4.7 101460 86
2005-03-11 08:28:36 51°12.05 2°48.095 16.9 10 4.7 101460 86
2005-03-11 08:28:41 51°12.038 2°48.064 18.7 13 4.7 101440 86
2005-03-11 08:28:46 51°12.029 2°48.039 17.3 12 4.7 101440 86
2005-03-11 08:28:51 51°12.017 2°48.007 18.3 15 4.7 101460 86
2005-03-11 08:28:56 51°12.007 2°47.978 18.2 13 4.7 101460 86
2005-03-11 08:29:01 51°11.996 2°47.95 18.4 12 4.7 101440 86
2005-03-11 08:29:07 51°11.985 2°47.918 18.6 11 4.7 101440 86
2005-03-11 08:29:11 51°11.977 2°47.895 17.9 12 4.7 101450 86
2005-03-11 08:29:17 51°11.964 2°47.861 18.4 8 4.7 101450 86
2005-03-11 08:29:22 51°11.954 2°47.832 17.5 11 4.7 101450 86
2005-03-11 08:29:26 51°11.944 2°47.806 19.5 13 4.7 101450 86
2005-03-11 08:29:31 51°11.934 2°47.778 17.6 10 4.7 101450 86
2005-03-11 08:29:36 51°11.925 2°47.752 18.2 9 4.7 101450 86
2005-03-11 08:29:41 51°11.914 2°47.721 18.2 11 4.7 101450 86
2005-03-11 08:29:46 51°11.904 2°47.696 18 10 4.7 101450 86
2005-03-11 08:29:51 51°11.893 2°47.664 19.1 13 4.7 101450 86
2005-03-11 08:29:56 51°11.883 2°47.636 18.8 13 4.7 101450 86
2005-03-11 08:30:00 51°11.874 2°47.613 18.9 11 4.7 101460 86
2005-03-11 08:30:06 51°11.862 2°47.578 19.6 9 4.7 101460 86
2005-03-11 08:30:11 51°11.852 2°47.55 17.4 15 4.7 101460 86
2005-03-11 08:30:16 51°11.842 2°47.521 16.7 14 4.7 101460 86
2005-03-11 08:30:21 51°11.832 2°47.496 17.6 12 4.7 101450 86
2005-03-11 08:30:26 51°11.821 2°47.464 18 14 4.7 101450 86
2005-03-11 08:30:31 51°11.811 2°47.436 19.4 15 4.7 101440 86
2005-03-11 08:30:36 51°11.801 2°47.408 17.2 10 4.7 101440 86
2005-03-11 08:30:41 51°11.79 2°47.38 17.7 11 4.7 101460 86
2005-03-11 08:30:46 51°11.781 2°47.354 17.6 14 4.7 101460 86
2005-03-11 08:30:51 51°11.77 2°47.323 17.5 14 4.7 101450 86
2005-03-11 08:30:56 51°11.76 2°47.295 17.2 10 4.7 101450 86
2005-03-11 08:31:02 51°11.748 2°47.264 17.3 8 4.7 101460 86
2005-03-11 08:31:06 51°11.74 2°47.241 18.4 11 4.7 101460 86
2005-03-11 08:31:11 51°11.729 2°47.21 18 11 4.7 101460 86
2005-03-11 08:31:16 51°11.719 2°47.181 17.7 13 4.7 101460 86
2005-03-11 08:31:21 51°11.709 2°47.153 18.4 11 4.7 101470 86
2005-03-11 08:31:26 51°11.7 2°47.127 19.7 15 4.7 101470 86
2005-03-11 08:31:32 51°11.689 2°47.094 19.5 11 4.7 101470 86
2005-03-11 08:31:36 51°11.68 2°47.067 19.4 14 4.7 101470 86
2005-03-11 08:31:41 51°11.67 2°47.039 18.1 12 4.7 101450 86
2005-03-11 08:31:46 51°11.662 2°47.013 18.4 13 4.7 101450 86
2005-03-11 08:31:51 51°11.651 2°46.982 18.4 14 4.7 101460 86
2005-03-11 08:31:56 51°11.641 2°46.954 17.9 11 4.7 101460 86
2005-03-11 08:32:01 51°11.631 2°46.926 18.8 10 4.7 101460 86
2005-03-11 08:32:06 51°11.621 2°46.898 18.9 15 4.7 101460 86
2005-03-11 08:32:11 51°11.611 2°46.87 18.8 11 4.7 101460 86
2005-03-11 08:32:16 51°11.601 2°46.842 17.4 12 4.7 101460 86
2005-03-11 08:32:21 51°11.593 2°46.813 18.8 7 4.7 101460 86
2005-03-11 08:32:26 51°11.585 2°46.787 19.8 9 4.7 101460 86
2005-03-11 08:32:31 51°11.576 2°46.755 18.9 4 4.7 101460 86
2005-03-11 08:32:36 51°11.568 2°46.725 19.6 8 4.7 101460 86
2005-03-11 08:32:41 51°11.561 2°46.698 18.9 8 4.7 101470 86
2005-03-11 08:32:45 51°11.554 2°46.671 18.4 5 4.7 101470 86
2005-03-11 08:32:52 51°11.545 2°46.632 18.1 6 4.7 101460 86
2005-03-11 08:32:56 51°11.539 2°46.605 18.5 5 4.7 101460 86
2005-03-11 08:33:00 51°11.533 2°46.581 17.4 6 4.7 101460 86
2005-03-11 08:33:06 51°11.525 2°46.548 21.1 1 4.7 101460 86
2005-03-11 08:33:12 51°11.517 2°46.512 18.8 6 4.7 101460 86
2005-03-11 08:33:16 51°11.51 2°46.484 19.9 6 4.7 101460 86
2005-03-11 08:33:21 51°11.502 2°46.454 19.5 10 4.7 101460 86
2005-03-11 08:33:26 51°11.495 2°46.427 19.2 8 4.7 101460 86
2005-03-11 08:33:30 51°11.489 2°46.403 18.5 12 4.7 101460 86
2005-03-11 08:33:36 51°11.478 2°46.364 18.3 7 4.7 101460 86
2005-03-11 08:33:41 51°11.47 2°46.334 19.1 10 4.7 101460 86
2005-03-11 08:33:46 51°11.462 2°46.307 19.1 5 4.7 101460 86
2005-03-11 08:33:50 51°11.456 2°46.283 20.8 11 4.7 101450 86
2005-03-11 08:33:57 51°11.445 2°46.241 19.4 9 4.7 101450 86
2005-03-11 08:34:01 51°11.438 2°46.213 18.6 4 4.7 101450 86
2005-03-11 08:34:06 51°11.432 2°46.186 19.9 3 4.7 101450 86
2005-03-11 08:34:11 51°11.424 2°46.155 20.6 10 4.7 101460 86
2005-03-11 08:34:16 51°11.416 2°46.122 18.5 7 4.7 101460 86
2005-03-11 08:34:21 51°11.409 2°46.094 19.2 6 4.7 101460 86
2005-03-11 08:34:27 51°11.4 2°46.058 19.7 11 4.7 101460 86
2005-03-11 08:34:31 51°11.393 2°46.03 17.9 7 4.7 101450 86
2005-03-11 08:34:36 51°11.385 2°46 19.3 14 4.7 101450 86
2005-03-11 08:34:41 51°11.378 2°45.973 19.3 7 4.7 101460 86
2005-03-11 08:34:46 51°11.368 2°45.939 18.7 10 4.7 101460 86
2005-03-11 08:34:52 51°11.359 2°45.906 19.4 7 4.7 101450 86
2005-03-11 08:34:56 51°11.352 2°45.879 20 8 4.7 101450 86
2005-03-11 08:35:00 51°11.346 2°45.855 20.8 10 4.7 101440 86
2005-03-11 08:35:05 51°11.338 2°45.825 20.1 9 4.7 101440 86
2005-03-11 08:35:11 51°11.329 2°45.792 20.5 9 4.7 101450 86
2005-03-11 08:35:16 51°11.321 2°45.761 19 9 4.7 101450 86
2005-03-11 08:35:21 51°11.313 2°45.728 19 5 4.7 101440 86
2005-03-11 08:35:26 51°11.305 2°45.697 19.3 10 4.7 101440 86
2005-03-11 08:35:31 51°11.298 2°45.667 20.2 16 4.7 101470 86
2005-03-11 08:35:37 51°11.289 2°45.633 18.1 9 4.7 101470 86
2005-03-11 08:35:40 51°11.284 2°45.612 19.6 9 4.7 101470 86
2005-03-11 08:35:45 51°11.275 2°45.582 20 14 4.7 101470 86
2005-03-11 08:35:50 51°11.268 2°45.555 21.1 10 4.7 101460 85
2005-03-11 08:35:57 51°11.257 2°45.513 18.9 5 4.7 101460 85
2005-03-11 08:36:01 51°11.249 2°45.486 19.4 9 4.7 101450 85
2005-03-11 08:36:06 51°11.242 2°45.459 19 10 4.7 101450 85
2005-03-11 08:36:11 51°11.233 2°45.426 19.3 8 4.7 101440 85
2005-03-11 08:36:16 51°11.225 2°45.396 19.3 7 4.7 101440 85
2005-03-11 08:36:22 51°11.217 2°45.363 19.3 9 4.8 101450 85
2005-03-11 08:36:26 51°11.21 2°45.338 20.3 10 4.8 101450 85
2005-03-11 08:36:31 51°11.201 2°45.305 19.9 12 4.7 101460 85
2005-03-11 08:36:36 51°11.193 2°45.275 17.7 5 4.7 101460 85
2005-03-11 08:36:40 51°11.187 2°45.251 20.6 12 4.7 101460 85
2005-03-11 08:36:46 51°11.178 2°45.218 20.4 8 4.7 101460 85
2005-03-11 08:36:52 51°11.169 2°45.182 20.3 7 4.7 101440 85
2005-03-11 08:36:57 51°11.161 2°45.151 19.3 6 4.7 101440 85
2005-03-11 08:37:01 51°11.154 2°45.125 18.7 6 4.8 101450 85
2005-03-11 08:37:06 51°11.146 2°45.093 19.3 5 4.8 101450 85
2005-03-11 08:37:10 51°11.14 2°45.073 18 4 4.8 101460 85
2005-03-11 08:37:17 51°11.13 2°45.03 20.3 8 4.8 101460 85
2005-03-11 08:37:20 51°11.124 2°45.009 19.1 5 4.8 101450 85
2005-03-11 08:37:26 51°11.115 2°44.972 21 8 4.8 101450 85
2005-03-11 08:37:32 51°11.106 2°44.939 19.9 7 4.8 101450 85
2005-03-11 08:37:36 51°11.099 2°44.912 20 5 4.8 101450 85
2005-03-11 08:37:41 51°11.092 2°44.884 17.9 7 4.8 101450 85
2005-03-11 08:37:46 51°11.083 2°44.85 18.1 6 4.8 101450 85
2005-03-11 08:37:50 51°11.077 2°44.826 19.5 7 4.7 101450 85
2005-03-11 08:37:56 51°11.068 2°44.79 19.8 5 4.7 101450 85
2005-03-11 08:38:00 51°11.061 2°44.765 17.9 8 4.8 101430 85
2005-03-11 08:38:06 51°11.052 2°44.727 19.2 7 4.8 101430 85
2005-03-11 08:38:11 51°11.045 2°44.697 18.1 4 4.7 101450 85
2005-03-11 08:38:16 51°11.039 2°44.669 17.7 5 4.7 101450 85
2005-03-11 08:38:20 51°11.033 2°44.641 19 3 4.8 101450 85
2005-03-11 08:38:26 51°11.024 2°44.603 18 4 4.8 101450 85
2005-03-11 08:38:31 51°11.019 2°44.575 19.1 6 4.8 101450 85
2005-03-11 08:38:36 51°11.011 2°44.541 19.5 360 4.8 101450 85
2005-03-11 08:38:41 51°11.006 2°44.512 20.2 4 4.7 101440 85
2005-03-11 08:38:46 51°10.998 2°44.478 19.1 7 4.7 101440 85
2005-03-11 08:38:51 51°10.992 2°44.451 19.8 6 4.7 101450 85
2005-03-11 08:38:56 51°10.984 2°44.417 20 9 4.7 101450 85
2005-03-11 08:39:00 51°10.978 2°44.392 19 4 4.8 101450 85
2005-03-11 08:39:06 51°10.97 2°44.354 18.6 7 4.8 101450 85
2005-03-11 08:39:10 51°10.965 2°44.333 19.8 4 4.7 101440 85
2005-03-11 08:39:17 51°10.955 2°44.289 20.7 7 4.7 101440 85
2005-03-11 08:39:21 51°10.948 2°44.261 19.2 9 4.7 101430 86
2005-03-11 08:39:26 51°10.941 2°44.229 17.7 3 4.7 101430 86
2005-03-11 08:39:31 51°10.935 2°44.199 18.6 5 4.7 101440 86
2005-03-11 08:39:36 51°10.929 2°44.171 21.4 5 4.7 101440 86
2005-03-11 08:39:40 51°10.923 2°44.143 18.6 9 4.7 101430 86
2005-03-11 08:39:45 51°10.915 2°44.112 18.3 4 4.7 101430 86
2005-03-11 08:39:50 51°10.909 2°44.084 19.2 6 4.7 101440 86
2005-03-11 08:39:56 51°10.9 2°44.047 19.1 4 4.7 101440 86
2005-03-11 08:40:01 51°10.893 2°44.015 18 3 4.6 101450 87
2005-03-11 08:40:06 51°10.886 2°43.985 17.5 10 4.6 101450 87
2005-03-11 08:40:11 51°10.879 2°43.95 18.7 4 4.6 101440 87
2005-03-11 08:40:17 51°10.871 2°43.913 18 7 4.6 101440 87
2005-03-11 08:40:20 51°10.866 2°43.895 18.9 7 4.6 101430 87
2005-03-11 08:40:26 51°10.858 2°43.861 17.5 359 4.6 101430 87
2005-03-11 08:40:31 51°10.851 2°43.83 19 4 4.6 101440 87
2005-03-11 08:40:36 51°10.845 2°43.799 18.4 2 4.6 101440 87
2005-03-11 08:40:42 51°10.837 2°43.762 17.9 9 4.6 101450 87
2005-03-11 08:40:46 51°10.83 2°43.734 19.3 4 4.6 101450 87
2005-03-11 08:40:51 51°10.824 2°43.703 18.6 13 4.6 101450 87
2005-03-11 08:40:56 51°10.817 2°43.673 18.9 2 4.6 101450 87
2005-03-11 08:41:02 51°10.809 2°43.639 20 3 4.6 101440 87
2005-03-11 08:41:06 51°10.802 2°43.611 20.9 7 4.6 101440 87
2005-03-11 08:41:12 51°10.795 2°43.578 19.3 6 4.6 101440 87
2005-03-11 08:41:16 51°10.789 2°43.55 18.7 -999 4.6 101440 87
2005-03-11 08:41:20 51°10.783 2°43.525 20 9 4.6 101440 87
2005-03-11 08:41:26 51°10.775 2°43.488 18.6 7 4.6 101440 87
2005-03-11 08:41:32 51°10.767 2°43.455 19.7 7 4.6 101430 87
2005-03-11 08:41:36 51°10.761 2°43.427 19 6 4.6 101430 87
2005-03-11 08:41:41 51°10.754 2°43.396 19.4 4 4.6 101450 87
2005-03-11 08:41:46 51°10.748 2°43.368 19.5 7 4.6 101450 87
2005-03-11 08:41:51 51°10.74 2°43.335 18.5 8 4.6 101450 87
2005-03-11 08:41:56 51°10.734 2°43.304 18.6 6 4.6 101450 87
2005-03-11 08:42:00 51°10.728 2°43.28 19 11 4.6 101450 87
2005-03-11 08:42:05 51°10.722 2°43.249 19.4 7 4.6 101450 87
2005-03-11 08:42:11 51°10.714 2°43.212 17.9 7 4.6 101440 87
2005-03-11 08:42:16 51°10.707 2°43.181 18.1 3 4.6 101440 87
2005-03-11 08:42:21 51°10.7 2°43.151 18.2 5 4.6 101450 87
2005-03-11 08:42:26 51°10.694 2°43.123 20.2 7 4.6 101450 87
2005-03-11 08:42:30 51°10.689 2°43.098 19.1 7 4.6 101440 87
2005-03-11 08:42:36 51°10.681 2°43.062 18.5 8 4.6 101440 87
2005-03-11 08:42:42 51°10.673 2°43.025 19.2 9 4.6 101440 87
2005-03-11 08:42:46 51°10.666 2°42.997 19 7 4.6 101440 87
2005-03-11 08:42:50 51°10.661 2°42.972 17.7 11 4.6 101450 87
2005-03-11 08:42:56 51°10.653 2°42.936 18.5 7 4.6 101450 87
2005-03-11 08:43:00 51°10.647 2°42.912 19 6 4.6 101450 87
2005-03-11 08:43:05 51°10.64 2°42.881 18.9 6 4.6 101450 87
2005-03-11 08:43:12 51°10.632 2°42.841 16 6 4.7 101450 87
2005-03-11 08:43:16 51°10.626 2°42.817 18.4 7 4.7 101450 87
2005-03-11 08:43:21 51°10.619 2°42.783 20.2 7 4.7 101460 87
2005-03-11 08:43:26 51°10.613 2°42.755 19.2 6 4.7 101460 87
2005-03-11 08:43:32 51°10.605 2°42.718 18.6 3 4.6 101440 87
2005-03-11 08:43:37 51°10.598 2°42.687 18.2 2 4.6 101440 87
2005-03-11 08:43:41 51°10.592 2°42.662 16.9 9 4.6 101450 87
2005-03-11 08:43:46 51°10.585 2°42.632 17.7 8 4.6 101450 87
2005-03-11 08:43:51 51°10.578 2°42.599 20.9 10 4.7 101430 87
2005-03-11 08:43:56 51°10.571 2°42.568 18.5 6 4.7 101430 87
2005-03-11 08:44:01 51°10.565 2°42.54 20.1 1 4.7 101460 87
2005-03-11 08:44:06 51°10.558 2°42.509 17.6 7 4.7 101460 87
2005-03-11 08:44:10 51°10.553 2°42.485 19.9 6 4.7 101450 87
2005-03-11 08:44:17 51°10.544 2°42.441 19 10 4.7 101450 87
2005-03-11 08:44:21 51°10.538 2°42.414 18.3 6 4.7 101450 87
2005-03-11 08:44:26 51°10.531 2°42.383 18.8 8 4.7 101450 87
2005-03-11 08:44:30 51°10.527 2°42.362 20.7 8 4.7 101450 87
2005-03-11 08:44:36 51°10.518 2°42.322 19.9 5 4.7 101450 87
2005-03-11 08:44:41 51°10.512 2°42.294 19.5 12 4.7 101440 87
2005-03-11 08:44:46 51°10.504 2°42.26 20.1 5 4.7 101440 87
2005-03-11 08:44:52 51°10.497 2°42.227 19.8 7 4.7 101440 87
2005-03-11 08:44:56 51°10.491 2°42.199 19.3 1 4.7 101440 87
2005-03-11 08:45:01 51°10.485 2°42.168 21 4 4.7 101420 87
2005-03-11 08:45:06 51°10.478 2°42.137 18.4 10 4.7 101420 87
2005-03-11 08:45:10 51°10.473 2°42.116 19.4 6 4.7 101430 87
2005-03-11 08:45:16 51°10.464 2°42.076 20.3 6 4.7 101430 87
2005-03-11 08:45:21 51°10.458 2°42.045 18.6 9 4.7 101430 87
2005-03-11 08:45:26 51°10.451 2°42.014 19.4 2 4.7 101430 87
2005-03-11 08:45:32 51°10.444 2°41.98 19.2 6 4.7 101430 87
2005-03-11 08:45:36 51°10.438 2°41.953 20.6 3 4.7 101430 87
2005-03-11 08:45:40 51°10.432 2°41.928 20.8 9 4.7 101440 87
2005-03-11 08:45:46 51°10.424 2°41.891 20 12 4.7 101440 87
2005-03-11 08:45:51 51°10.418 2°41.861 21.1 7 4.7 101440 87
2005-03-11 08:45:56 51°10.411 2°41.829 20 8 4.7 101440 87
2005-03-11 08:46:00 51°10.406 2°41.805 20.4 6 4.7 101440 87
2005-03-11 08:46:07 51°10.397 2°41.762 21 7 4.7 101440 87
2005-03-11 08:46:10 51°10.393 2°41.742 19.7 7 4.8 101440 87
2005-03-11 08:46:16 51°10.386 2°41.706 18.8 8 4.8 101440 87
2005-03-11 08:46:21 51°10.379 2°41.675 19.7 10 4.8 101460 86
2005-03-11 08:46:26 51°10.373 2°41.647 19.3 7 4.8 101460 86
2005-03-11 08:46:30 51°10.367 2°41.619 18.6 10 4.7 101430 86
2005-03-11 08:46:36 51°10.359 2°41.583 19.1 9 4.7 101430 86
2005-03-11 08:46:40 51°10.353 2°41.558 18.6 7 4.8 101450 86
2005-03-11 08:46:47 51°10.345 2°41.518 19.3 11 4.8 101450 86
2005-03-11 08:46:52 51°10.338 2°41.488 19.5 11 4.8 101440 86
2005-03-11 08:46:57 51°10.331 2°41.457 19.2 10 4.8 101440 86
2005-03-11 08:47:01 51°10.325 2°41.429 19 9 4.8 101440 86
2005-03-11 08:47:06 51°10.319 2°41.402 18.3 9 4.8 101440 86
2005-03-11 08:47:11 51°10.312 2°41.367 19 5 4.8 101440 86
2005-03-11 08:47:17 51°10.305 2°41.333 19.2 10 4.8 101440 86
2005-03-11 08:47:21 51°10.299 2°41.306 18.4 8 4.8 101440 86
2005-03-11 08:47:26 51°10.293 2°41.278 20.9 6 4.8 101440 86
2005-03-11 08:47:31 51°10.286 2°41.244 18.9 3 4.8 101440 86
2005-03-11 08:47:36 51°10.28 2°41.213 18.5 8 4.8 101440 86
2005-03-11 08:47:42 51°10.273 2°41.179 19.2 10 4.8 101450 86
2005-03-11 08:47:46 51°10.267 2°41.151 18.8 4 4.8 101450 86
2005-03-11 08:47:51 51°10.26 2°41.12 17.8 7 4.8 101440 86
2005-03-11 08:47:56 51°10.254 2°41.09 17.8 8 4.8 101440 86
2005-03-11 08:48:01 51°10.248 2°41.058 18.5 7 4.8 101450 86
2005-03-11 08:48:06 51°10.241 2°41.027 18.3 7 4.8 101450 86
2005-03-11 08:48:11 51°10.235 2°40.996 20.6 8 4.8 101450 86
2005-03-11 08:48:16 51°10.229 2°40.965 20.6 -999 4.8 101450 86
2005-03-11 08:48:21 51°10.223 2°40.934 19.4 12 4.8 101450 86
2005-03-11 08:48:26 51°10.216 2°40.903 19.7 7 4.8 101450 86
2005-03-11 08:48:32 51°10.21 2°40.869 19.1 11 4.8 101440 86
2005-03-11 08:48:36 51°10.204 2°40.842 17.7 6 4.8 101440 86
2005-03-11 08:48:41 51°10.198 2°40.814 20.4 10 4.8 101450 86
2005-03-11 08:48:46 51°10.191 2°40.78 18.4 8 4.8 101450 86
2005-03-11 08:48:51 51°10.184 2°40.75 19.2 12 4.8 101440 86
2005-03-11 08:48:57 51°10.177 2°40.716 19.6 6 4.8 101440 86
2005-03-11 08:49:02 51°10.171 2°40.686 22.1 5 4.8 101450 86
2005-03-11 08:49:06 51°10.165 2°40.661 19.2 9 4.8 101450 86
2005-03-11 08:49:11 51°10.159 2°40.63 18.9 6 4.8 101430 86
2005-03-11 08:49:16 51°10.152 2°40.6 18.3 4 4.8 101430 86
2005-03-11 08:49:20 51°10.146 2°40.572 17.9 5 4.8 101440 86
2005-03-11 08:49:26 51°10.138 2°40.535 18.4 11 4.8 101440 86
2005-03-11 08:49:32 51°10.131 2°40.502 19.8 6 4.8 101440 86
2005-03-11 08:49:36 51°10.125 2°40.475 20 4 4.8 101440 86
2005-03-11 08:49:40 51°10.12 2°40.45 19.7 7 4.8 101440 86
2005-03-11 08:49:47 51°10.112 2°40.41 18.1 5 4.8 101440 86
2005-03-11 08:49:50 51°10.108 2°40.388 18.8 5 4.8 101430 86
2005-03-11 08:49:57 51°10.099 2°40.349 18.8 8 4.8 101430 86
2005-03-11 08:50:01 51°10.093 2°40.325 20.1 6 4.8 101430 86
2005-03-11 08:50:06 51°10.087 2°40.294 21.3 9 4.8 101430 86
2005-03-11 08:50:12 51°10.079 2°40.258 21.6 10 4.8 101450 86
2005-03-11 08:50:16 51°10.074 2°40.231 19.4 8 4.8 101450 86
2005-03-11 08:50:21 51°10.068 2°40.203 17.4 7 4.8 101420 86
2005-03-11 08:50:26 51°10.061 2°40.173 18.6 5 4.8 101420 86
2005-03-11 08:50:30 51°10.056 2°40.148 21.3 8 4.8 101440 86
2005-03-11 08:50:36 51°10.048 2°40.109 20.9 8 4.8 101440 86
2005-03-11 08:50:40 51°10.043 2°40.084 18.9 7 4.8 101430 86
2005-03-11 08:50:46 51°10.035 2°40.051 19.7 7 4.8 101430 86
2005-03-11 08:50:52 51°10.028 2°40.014 18.7 8 4.8 101440 86
2005-03-11 08:50:56 51°10.022 2°39.987 18.8 9 4.8 101440 86
2005-03-11 08:51:01 51°10.016 2°39.96 18.5 9 4.8 101450 86
2005-03-11 08:51:06 51°10.01 2°39.929 18.6 8 4.8 101450 86
2005-03-11 08:51:11 51°10.002 2°39.896 19.4 5 4.8 101440 86
2005-03-11 08:51:17 51°9.995 2°39.862 18.8 7 4.8 101440 86
2005-03-11 08:51:20 51°9.991 2°39.841 18.5 9 4.8 101450 86
2005-03-11 08:51:26 51°9.984 2°39.808 19.5 6 4.8 101450 86
2005-03-11 08:51:31 51°9.978 2°39.777 18.9 8 4.8 101440 86
2005-03-11 08:51:36 51°9.971 2°39.744 18.3 7 4.8 101440 86
2005-03-11 08:51:41 51°9.964 2°39.713 18.5 6 4.8 101450 86
2005-03-11 08:51:46 51°9.959 2°39.686 17.2 6 4.8 101450 86
2005-03-11 08:51:50 51°9.954 2°39.661 18.9 7 4.8 101450 86
2005-03-11 08:51:57 51°9.945 2°39.618 17.7 3 4.8 101450 86
2005-03-11 08:52:01 51°9.939 2°39.591 19.7 7 4.8 101440 86
2005-03-11 08:52:06 51°9.934 2°39.563 18.5 2 4.8 101440 86
2005-03-11 08:52:10 51°9.929 2°39.539 18.7 4 4.8 101450 86
2005-03-11 08:52:16 51°9.921 2°39.499 18.1 6 4.8 101450 86
2005-03-11 08:52:20 51°9.916 2°39.475 18.7 7 4.8 101450 86
2005-03-11 08:52:26 51°9.908 2°39.437 20.5 6 4.8 101450 86
2005-03-11 08:52:30 51°9.903 2°39.413 19 5 4.8 101440 86
2005-03-11 08:52:36 51°9.896 2°39.38 18.6 8 4.8 101440 86
2005-03-11 08:52:40 51°9.89 2°39.353 19.5 4 4.8 101440 86
2005-03-11 08:52:46 51°9.883 2°39.319 19.9 7 4.8 101440 86
2005-03-11 08:52:51 51°9.876 2°39.285 18.3 1 4.8 101440 86
2005-03-11 08:52:56 51°9.87 2°39.254 18.5 6 4.8 101440 86
2005-03-11 08:53:01 51°9.864 2°39.227 19.6 5 4.8 101430 86
2005-03-11 08:53:06 51°9.857 2°39.192 18.2 5 4.8 101430 86
2005-03-11 08:53:11 51°9.851 2°39.162 21.2 8 4.8 101440 86
2005-03-11 08:53:16 51°9.846 2°39.135 19.7 5 4.8 101440 86
2005-03-11 08:53:21 51°9.839 2°39.101 20 11 4.8 101430 86
2005-03-11 08:53:26 51°9.832 2°39.07 18.5 3 4.8 101430 86
2005-03-11 08:53:31 51°9.826 2°39.04 18.7 12 4.8 101440 86
2005-03-11 08:53:36 51°9.82 2°39.009 17.3 5 4.8 101440 86
2005-03-11 08:53:41 51°9.814 2°38.982 18.3 8 4.9 101420 86
2005-03-11 08:53:45 51°9.808 2°38.955 18.6 4 4.9 101420 86
2005-03-11 08:53:50 51°9.803 2°38.927 18.9 3 4.9 101430 86
2005-03-11 08:53:56 51°9.795 2°38.887 20.5 4 4.9 101430 86
2005-03-11 08:54:01 51°9.789 2°38.856 21.2 2 4.9 101430 86
2005-03-11 08:54:06 51°9.784 2°38.827 19.9 4 4.9 101430 86
2005-03-11 08:54:11 51°9.778 2°38.796 20.2 5 4.8 101430 86
2005-03-11 08:54:16 51°9.772 2°38.766 19.8 5 4.8 101430 86
2005-03-11 08:54:22 51°9.765 2°38.729 19.9 3 4.9 101430 86
2005-03-11 08:54:26 51°9.76 2°38.703 19.9 4 4.9 101430 86
2005-03-11 08:54:31 51°9.753 2°38.67 21 8 4.9 101440 86
2005-03-11 08:54:36 51°9.747 2°38.639 20.2 -999 4.9 101440 86
2005-03-11 08:54:41 51°9.741 2°38.609 22.3 4 4.9 101440 86
2005-03-11 08:54:47 51°9.734 2°38.575 21 4 4.9 101440 86
2005-03-11 08:54:51 51°9.729 2°38.547 20.9 4 4.9 101430 86
2005-03-11 08:54:56 51°9.722 2°38.517 20.9 1 4.9 101430 86
2005-03-11 08:55:01 51°9.716 2°38.487 19.9 7 4.9 101420 86
2005-03-11 08:55:06 51°9.71 2°38.459 20.7 2 4.9 101420 86
2005-03-11 08:55:11 51°9.703 2°38.426 18.1 -999 4.9 101420 86
2005-03-11 08:55:16 51°9.697 2°38.395 19.1 3 4.9 101420 86
2005-03-11 08:55:21 51°9.69 2°38.365 18.2 3 4.9 101430 86
2005-03-11 08:55:26 51°9.685 2°38.338 20.2 8 4.9 101430 86
2005-03-11 08:55:31 51°9.678 2°38.304 19.1 6 4.9 101430 86
2005-03-11 08:55:36 51°9.672 2°38.277 20 4 4.9 101430 86
2005-03-11 08:55:41 51°9.665 2°38.243 20.6 8 4.9 101420 85
2005-03-11 08:55:46 51°9.659 2°38.216 18.8 8 4.9 101420 85
2005-03-11 08:55:51 51°9.652 2°38.182 19.7 6 4.9 101420 85
2005-03-11 08:55:56 51°9.647 2°38.155 20.3 3 4.9 101420 85
2005-03-11 08:56:01 51°9.64 2°38.121 20.2 5 5 101420 85
2005-03-11 08:56:07 51°9.632 2°38.087 19 4 5 101420 85
2005-03-11 08:56:10 51°9.627 2°38.066 19.5 11 4.9 101410 85
2005-03-11 08:56:16 51°9.618 2°38.03 19.7 9 4.9 101410 85
2005-03-11 08:56:20 51°9.612 2°38.006 19.3 8 5 101410 85
2005-03-11 08:56:26 51°9.603 2°37.97 18.4 6 5 101410 85
2005-03-11 08:56:32 51°9.595 2°37.938 19.8 6 4.9 101420 85
2005-03-11 08:56:36 51°9.588 2°37.91 19 9 4.9 101420 85
2005-03-11 08:56:40 51°9.582 2°37.886 21.3 7 5 101440 85
2005-03-11 08:56:47 51°9.572 2°37.847 19.1 7 5 101440 85
2005-03-11 08:56:52 51°9.564 2°37.817 19.1 10 5 101420 85
2005-03-11 08:56:56 51°9.558 2°37.79 20.2 6 5 101420 85
2005-03-11 08:57:01 51°9.55 2°37.761 18.8 6 5 101420 85
2005-03-11 08:57:06 51°9.543 2°37.734 21.2 7 5 101420 85
2005-03-11 08:57:12 51°9.535 2°37.697 20.8 10 4.9 101420 85
2005-03-11 08:57:16 51°9.529 2°37.673 19.7 6 4.9 101420 85
2005-03-11 08:57:21 51°9.522 2°37.639 20.6 6 4.9 101440 85
2005-03-11 08:57:27 51°9.514 2°37.605 18.9 9 4.9 101440 85
2005-03-11 08:57:31 51°9.509 2°37.581 21.8 8 5 101420 85
2005-03-11 08:57:37 51°9.502 2°37.543 19 7 5 101420 85
2005-03-11 08:57:41 51°9.497 2°37.516 21.1 6 5 101430 85
2005-03-11 08:57:45 51°9.492 2°37.491 19.6 357 5 101430 85
2005-03-11 08:57:51 51°9.484 2°37.454 19.4 3 5 101420 85
2005-03-11 08:57:56 51°9.478 2°37.423 20 -999 5 101420 85
2005-03-11 08:58:01 51°9.472 2°37.392 19.4 5 5 101430 85
2005-03-11 08:58:06 51°9.467 2°37.365 19.5 5 5 101430 85
2005-03-11 08:58:12 51°9.46 2°37.327 20 3 5 101430 85
2005-03-11 08:58:16 51°9.455 2°37.299 18.9 357 5 101430 85
2005-03-11 08:58:21 51°9.449 2°37.268 18.5 5 5 101410 85
2005-03-11 08:58:26 51°9.444 2°37.239 20 7 5 101410 85
2005-03-11 08:58:31 51°9.438 2°37.204 18.7 4 5 101410 85
2005-03-11 08:58:36 51°9.433 2°37.174 19.3 7 5 101410 85
2005-03-11 08:58:41 51°9.427 2°37.146 19.9 5 5 101400 85
2005-03-11 08:58:46 51°9.421 2°37.115 19.3 5 5 101400 85
2005-03-11 08:58:51 51°9.415 2°37.081 18 5 5 101420 85
2005-03-11 08:58:56 51°9.409 2°37.05 19.8 6 5 101420 85
2005-03-11 08:59:02 51°9.402 2°37.016 21.5 3 5 101430 85
2005-03-11 08:59:07 51°9.396 2°36.985 20.7 4 5 101430 85
2005-03-11 08:59:12 51°9.39 2°36.954 19.4 2 5 101410 85
2005-03-11 08:59:16 51°9.385 2°36.927 18.7 2 5 101410 85
2005-03-11 08:59:21 51°9.379 2°36.896 18.8 6 5 101420 85
2005-03-11 08:59:25 51°9.374 2°36.871 19.7 4 5 101420 85
2005-03-11 08:59:31 51°9.368 2°36.837 18.6 9 5 101400 86
2005-03-11 08:59:36 51°9.361 2°36.803 19.6 7 5 101400 86
2005-03-11 08:59:41 51°9.356 2°36.774 18.9 3 5 101420 86
2005-03-11 08:59:46 51°9.351 2°36.749 19.1 8 5 101420 86
2005-03-11 08:59:52 51°9.345 2°36.719 18.2 2 5 101420 86
2005-03-11 08:59:56 51°9.34 2°36.697 18.7 5 5 101420 86
2005-03-11 09:00:00 51°9.336 2°36.68 18.5 6 5 101420 86
2005-03-11 09:00:06 51°9.332 2°36.656 17.4 7 5 101420 86
2005-03-11 09:00:12 51°9.326 2°36.633 16.9 12 5 101420 86
2005-03-11 09:00:17 51°9.322 2°36.615 15.1 12 5 101420 86
2005-03-11 09:00:21 51°9.318 2°36.6 17.4 16 5 101420 85
2005-03-11 09:00:26 51°9.313 2°36.586 15.4 15 5 101420 85
2005-03-11 09:00:32 51°9.308 2°36.57 16.7 19 5 101430 85
2005-03-11 09:00:36 51°9.303 2°36.558 14.4 20 5 101430 85
2005-03-11 09:00:40 51°9.3 2°36.548 13.9 23 5 101430 85
2005-03-11 09:00:46 51°9.294 2°36.536 13.7 22 5 101430 85
2005-03-11 09:00:51 51°9.289 2°36.524 14.7 26 5 101430 85
2005-03-11 09:00:56 51°9.285 2°36.515 14 32 5 101430 85
2005-03-11 09:01:02 51°9.28 2°36.506 15.6 30 5 101430 85
2005-03-11 09:01:06 51°9.276 2°36.499 14.5 35 5 101430 85
2005-03-11 09:01:11 51°9.271 2°36.492 14.5 38 4.9 101440 85
2005-03-11 09:01:16 51°9.267 2°36.486 14.6 45 4.9 101440 85
2005-03-11 09:01:22 51°9.263 2°36.48 14.6 50 5 101430 85
2005-03-11 09:01:27 51°9.258 2°36.475 14.4 53 5 101430 85
2005-03-11 09:01:31 51°9.255 2°36.472 13.1 57 4.9 101430 86
2005-03-11 09:01:36 51°9.252 2°36.469 12.5 60 4.9 101430 86
2005-03-11 09:01:41 51°9.249 2°36.466 15.3 59 4.9 101420 86
2005-03-11 09:01:47 51°9.246 2°36.463 13.3 67 4.9 101420 86
2005-03-11 09:01:51 51°9.243 2°36.461 11.2 72 4.9 101410 86
2005-03-11 09:01:56 51°9.24 2°36.458 13 67 4.9 101410 86
2005-03-11 09:02:00 51°9.238 2°36.456 11.3 71 4.9 101420 85
2005-03-11 09:02:06 51°9.234 2°36.454 10.5 74 4.9 101420 85
2005-03-11 09:02:10 51°9.232 2°36.453 10.5 77 4.9 101410 85
2005-03-11 09:02:16 51°9.228 2°36.45 12.8 67 4.9 101410 85
2005-03-11 09:02:21 51°9.225 2°36.448 10.5 75 4.9 101420 86
2005-03-11 09:02:26 51°9.223 2°36.447 11.3 69 4.9 101420 86
2005-03-11 09:02:32 51°9.219 2°36.444 11.3 72 4.9 101420 86
2005-03-11 09:02:36 51°9.217 2°36.443 9.7 74 4.9 101420 86
2005-03-11 09:02:40 51°9.215 2°36.441 11.8 76 4.9 101420 86
2005-03-11 09:02:45 51°9.213 2°36.44 13.7 67 4.9 101420 86
2005-03-11 09:02:51 51°9.21 2°36.438 11.4 72 4.9 101420 86
2005-03-11 09:02:56 51°9.207 2°36.436 11.4 72 4.9 101420 86
2005-03-11 09:03:01 51°9.205 2°36.435 9.9 72 4.9 101430 86
2005-03-11 09:03:06 51°9.204 2°36.433 10.1 78 4.9 101430 86
2005-03-11 09:03:12 51°9.201 2°36.431 9.8 71 4.9 101430 86
2005-03-11 09:03:16 51°9.199 2°36.43 10.7 75 4.9 101430 86
2005-03-11 09:03:21 51°9.197 2°36.428 10.6 77 4.9 101420 86
2005-03-11 09:03:26 51°9.195 2°36.427 9.7 74 4.9 101420 86
2005-03-11 09:03:31 51°9.193 2°36.426 10.8 77 4.9 101420 86
2005-03-11 09:03:36 51°9.191 2°36.424 11.7 78 4.9 101420 86
2005-03-11 09:03:42 51°9.189 2°36.423 11.2 69 4.9 101420 86
2005-03-11 09:03:46 51°9.188 2°36.422 9.7 79 4.9 101420 86
2005-03-11 09:03:50 51°9.186 2°36.421 11 78 4.9 101430 86
2005-03-11 09:03:56 51°9.184 2°36.419 10.2 76 4.9 101430 86
2005-03-11 09:04:01 51°9.182 2°36.418 11.3 80 4.9 101410 86
2005-03-11 09:04:06 51°9.181 2°36.417 11.1 81 4.9 101410 86
2005-03-11 09:04:11 51°9.179 2°36.416 11 75 4.9 101420 86
2005-03-11 09:04:16 51°9.177 2°36.415 11.8 80 4.9 101420 86
2005-03-11 09:04:21 51°9.176 2°36.414 10.9 74 4.9 101420 86
2005-03-11 09:04:26 51°9.174 2°36.413 10.5 79 4.9 101420 86
2005-03-11 09:04:31 51°9.173 2°36.412 9.8 81 4.9 101420 86
2005-03-11 09:04:36 51°9.172 2°36.411 9.3 72 4.9 101420 86
2005-03-11 09:04:41 51°9.171 2°36.41 10.4 77 4.9 101420 86
2005-03-11 09:04:46 51°9.169 2°36.408 12.1 79 4.9 101420 86
2005-03-11 09:04:52 51°9.168 2°36.408 12.7 83 4.9 101420 86
2005-03-11 09:04:56 51°9.166 2°36.407 12.6 85 4.9 101420 86
2005-03-11 09:05:00 51°9.165 2°36.406 11.5 87 4.9 101420 86
2005-03-11 09:05:05 51°9.164 2°36.405 11.6 83 4.9 101420 86
2005-03-11 09:05:11 51°9.163 2°36.404 11.7 78 4.9 101410 86
2005-03-11 09:05:16 51°9.162 2°36.403 12 81 4.9 101410 86
2005-03-11 09:05:21 51°9.16 2°36.402 12 84 4.8 101420 86
2005-03-11 09:05:25 51°9.159 2°36.401 10.6 80 4.8 101420 86
2005-03-11 09:05:31 51°9.158 2°36.4 13.5 89 4.8 101420 86
2005-03-11 09:05:37 51°9.157 2°36.399 13.4 86 4.8 101420 86
2005-03-11 09:05:42 51°9.156 2°36.399 13.5 90 4.8 101420 86
2005-03-11 09:05:45 51°9.155 2°36.398 12.7 91 4.8 101420 86
2005-03-11 09:05:52 51°9.154 2°36.397 13.4 86 4.8 101420 86
2005-03-11 09:05:56 51°9.153 2°36.397 12.6 87 4.8 101420 86
2005-03-11 09:06:00 51°9.153 2°36.396 13.4 102 4.8 101420 86
2005-03-11 09:06:06 51°9.151 2°36.395 11.3 94 4.8 101420 86
2005-03-11 09:06:09 51°9.151 2°36.395 10.8 97 4.8 101420 86
2005-03-11 09:06:16 51°9.15 2°36.394 11.2 105 4.8 101420 86
2005-03-11 09:06:21 51°9.149 2°36.394 10.5 99 4.8 101430 87
2005-03-11 09:06:24 51°9.148 2°36.393 12.9 105 4.8 101430 87
2005-03-11 09:06:32 51°9.147 2°36.393 13.4 103 4.8 101420 87
2005-03-11 09:06:36 51°9.146 2°36.393 13.4 109 4.8 101420 87
2005-03-11 09:06:40 51°9.145 2°36.392 12.8 101 4.8 101420 87
2005-03-11 09:06:46 51°9.144 2°36.392 13.3 103 4.8 101420 87
2005-03-11 09:06:52 51°9.142 2°36.391 13.6 108 4.8 101420 87
2005-03-11 09:06:56 51°9.141 2°36.39 12.5 114 4.8 101420 87
2005-03-11 09:07:02 51°9.14 2°36.39 12.7 103 4.8 101420 87
2005-03-11 09:07:06 51°9.139 2°36.389 12 105 4.8 101420 87
2005-03-11 09:07:11 51°9.137 2°36.389 11.5 113 4.8 101420 87
2005-03-11 09:07:16 51°9.136 2°36.388 12.4 103 4.8 101420 87
2005-03-11 09:07:20 51°9.135 2°36.388 12 111 4.8 101430 87
2005-03-11 09:07:25 51°9.133 2°36.387 12.2 105 4.8 101430 87
2005-03-11 09:07:31 51°9.131 2°36.387 13 111 4.8 101430 87
2005-03-11 09:07:36 51°9.13 2°36.387 12 113 4.8 101430 87
2005-03-11 09:07:41 51°9.128 2°36.387 13.4 111 4.8 101420 87
2005-03-11 09:07:46 51°9.126 2°36.386 12.5 116 4.8 101420 87
2005-03-11 09:07:51 51°9.125 2°36.386 11.7 113 4.8 101430 87
2005-03-11 09:07:56 51°9.123 2°36.385 11.6 110 4.8 101430 87
2005-03-11 09:08:02 51°9.121 2°36.385 11.8 116 4.8 101430 87
2005-03-11 09:08:06 51°9.12 2°36.385 12.4 113 4.8 101430 87
2005-03-11 09:08:11 51°9.118 2°36.384 12.9 111 4.8 101430 87
2005-03-11 09:08:16 51°9.116 2°36.384 13.2 117 4.8 101430 87
2005-03-11 09:08:21 51°9.114 2°36.384 11.8 112 4.8 101430 87
2005-03-11 09:08:26 51°9.112 2°36.384 13.5 112 4.8 101430 87
2005-03-11 09:08:32 51°9.11 2°36.383 13.7 112 4.8 101430 87
2005-03-11 09:08:36 51°9.108 2°36.384 13.2 113 4.8 101430 87
2005-03-11 09:08:40 51°9.107 2°36.383 12.8 112 4.8 101430 87
2005-03-11 09:08:46 51°9.105 2°36.383 13.1 116 4.8 101430 87
2005-03-11 09:08:51 51°9.102 2°36.383 11.1 120 4.8 101430 87
2005-03-11 09:08:56 51°9.1 2°36.383 13.5 112 4.8 101430 87
2005-03-11 09:09:02 51°9.099 2°36.383 13.4 109 4.8 101430 87
2005-03-11 09:09:06 51°9.097 2°36.383 13 109 4.8 101430 87
2005-03-11 09:09:12 51°9.095 2°36.383 13.8 115 4.8 101430 87
2005-03-11 09:09:16 51°9.093 2°36.383 12.8 114 4.8 101430 87
2005-03-11 09:09:22 51°9.09 2°36.383 14 114 4.8 101430 87
2005-03-11 09:09:26 51°9.089 2°36.383 14 115 4.8 101430 87
2005-03-11 09:09:30 51°9.088 2°36.383 13.3 121 4.8 101430 87
2005-03-11 09:09:36 51°9.085 2°36.383 13.7 118 4.8 101430 87
2005-03-11 09:09:40 51°9.083 2°36.383 12.7 123 4.8 101420 87
2005-03-11 09:09:45 51°9.081 2°36.383 12 121 4.8 101420 87
2005-03-11 09:09:49 51°9.08 2°36.383 13.5 116 4.8 101420 87
2005-03-11 09:09:56 51°9.077 2°36.383 13.1 119 4.8 101420 87
2005-03-11 09:10:02 51°9.075 2°36.383 11.9 115 4.8 101420 87
2005-03-11 09:10:06 51°9.073 2°36.383 14.2 111 4.8 101420 87
2005-03-11 09:10:11 51°9.071 2°36.383 11.8 114 4.8 101430 87
2005-03-11 09:10:16 51°9.069 2°36.383 12.4 117 4.8 101430 87
2005-03-11 09:10:21 51°9.067 2°36.383 13.5 105 4.8 101420 87
2005-03-11 09:10:26 51°9.064 2°36.383 13.7 110 4.8 101420 87
2005-03-11 09:10:31 51°9.062 2°36.383 13.8 113 4.8 101420 87
2005-03-11 09:10:36 51°9.06 2°36.383 12.8 112 4.8 101420 87
2005-03-11 09:10:40 51°9.059 2°36.383 11 116 4.8 101420 87
2005-03-11 09:10:46 51°9.056 2°36.382 10.7 111 4.8 101420 87
2005-03-11 09:10:52 51°9.054 2°36.382 13.2 112 4.8 101420 87
2005-03-11 09:10:57 51°9.052 2°36.383 12.1 115 4.8 101420 87
2005-03-11 09:11:01 51°9.05 2°36.383 12.3 109 4.8 101420 87
2005-03-11 09:11:07 51°9.047 2°36.383 11.5 122 4.8 101420 87
2005-03-11 09:11:12 51°9.044 2°36.384 13 122 4.8 101420 87
2005-03-11 09:11:16 51°9.042 2°36.385 13.6 123 4.8 101420 87
2005-03-11 09:11:20 51°9.039 2°36.386 13 125 4.8 101430 87
2005-03-11 09:11:26 51°9.036 2°36.389 10.7 133 4.8 101430 87
2005-03-11 09:11:31 51°9.033 2°36.393 11.5 144 4.8 101420 87
2005-03-11 09:11:36 51°9.03 2°36.396 10.3 136 4.8 101420 87
2005-03-11 09:11:41 51°9.027 2°36.401 10.1 146 4.8 101430 87
2005-03-11 09:11:46 51°9.025 2°36.405 10.7 149 4.8 101430 87
2005-03-11 09:11:51 51°9.023 2°36.41 9.3 158 4.8 101420 88
2005-03-11 09:11:56 51°9.022 2°36.416 9.6 167 4.8 101420 88
2005-03-11 09:12:02 51°9.021 2°36.423 9.2 172 4.8 101430 88
2005-03-11 09:12:06 51°9.021 2°36.428 9.5 182 4.8 101430 88
2005-03-11 09:12:11 51°9.021 2°36.434 7.1 202 4.8 101440 88
2005-03-11 09:12:16 51°9.022 2°36.44 12 200 4.8 101440 88
2005-03-11 09:12:21 51°9.024 2°36.446 9.9 218 4.8 101440 88
2005-03-11 09:12:26 51°9.026 2°36.45 11.6 216 4.8 101440 88
2005-03-11 09:12:31 51°9.028 2°36.455 12.8 232 4.8 101450 88
2005-03-11 09:12:36 51°9.032 2°36.459 11.7 234 4.8 101450 88
2005-03-11 09:12:42 51°9.036 2°36.463 8.3 248 4.8 101460 88
2005-03-11 09:12:46 51°9.039 2°36.465 9 252 4.8 101460 88
2005-03-11 09:12:52 51°9.044 2°36.467 6.9 259 4.8 101480 88
2005-03-11 09:12:56 51°9.048 2°36.468 9.7 262 4.8 101480 88
2005-03-11 09:13:00 51°9.051 2°36.468 11.8 266 4.8 101470 88
2005-03-11 09:13:06 51°9.056 2°36.467 13.1 263 4.8 101470 88
2005-03-11 09:13:12 51°9.062 2°36.465 14.7 277 4.8 101450 88
2005-03-11 09:13:16 51°9.066 2°36.463 15.3 279 4.8 101450 88
2005-03-11 09:13:20 51°9.07 2°36.46 12.4 283 4.8 101440 87
2005-03-11 09:13:26 51°9.076 2°36.456 12.8 279 4.8 101440 87
2005-03-11 09:13:31 51°9.081 2°36.452 12.2 284 4.8 101430 88
2005-03-11 09:13:36 51°9.087 2°36.447 11.4 286 4.8 101430 88
2005-03-11 09:13:40 51°9.091 2°36.444 13.3 290 4.8 101430 88
2005-03-11 09:13:46 51°9.097 2°36.438 16 291 4.8 101430 88
2005-03-11 09:13:52 51°9.103 2°36.432 15.9 283 4.8 101430 88
2005-03-11 09:13:56 51°9.109 2°36.427 13.3 283 4.8 101430 88
2005-03-11 09:14:02 51°9.115 2°36.421 13.1 287 4.9 101430 87
2005-03-11 09:14:06 51°9.121 2°36.416 14.4 291 4.9 101430 87
2005-03-11 09:14:10 51°9.125 2°36.413 13.5 288 4.8 101410 88
2005-03-11 09:14:16 51°9.133 2°36.406 14.3 292 4.8 101410 88
2005-03-11 09:14:21 51°9.139 2°36.4 15.3 292 4.8 101440 88
2005-03-11 09:14:26 51°9.145 2°36.393 14.8 290 4.8 101440 88
2005-03-11 09:14:31 51°9.151 2°36.387 12.9 298 4.8 101410 87
2005-03-11 09:14:37 51°9.158 2°36.38 13.4 296 4.8 101410 87
2005-03-11 09:14:42 51°9.165 2°36.373 15.1 291 4.8 101390 88
2005-03-11 09:14:47 51°9.171 2°36.367 13.8 291 4.8 101390 88
2005-03-11 09:14:51 51°9.177 2°36.361 14 292 4.8 101390 88
2005-03-11 09:14:56 51°9.183 2°36.354 13.3 294 4.8 101390 88
2005-03-11 09:15:02 51°9.19 2°36.346 13.7 291 4.8 101410 88
2005-03-11 09:15:06 51°9.195 2°36.34 14.6 299 4.8 101410 88
2005-03-11 09:15:11 51°9.202 2°36.332 14.8 301 4.8 101400 88
2005-03-11 09:15:16 51°9.209 2°36.325 13.5 297 4.8 101400 88
2005-03-11 09:15:21 51°9.216 2°36.318 14.2 290 4.8 101400 88
2005-03-11 09:15:26 51°9.222 2°36.311 13.8 294 4.8 101400 88
2005-03-11 09:15:32 51°9.229 2°36.303 15 295 4.8 101390 88
2005-03-11 09:15:36 51°9.235 2°36.296 15.3 289 4.8 101390 88
2005-03-11 09:15:41 51°9.241 2°36.289 12.7 296 4.8 101400 88
2005-03-11 09:15:46 51°9.246 2°36.283 12.8 293 4.8 101400 88
2005-03-11 09:15:51 51°9.252 2°36.276 14.7 300 4.8 101400 88
2005-03-11 09:15:56 51°9.257 2°36.27 13 288 4.8 101400 88
2005-03-11 09:16:01 51°9.262 2°36.263 16 290 4.8 101410 88
2005-03-11 09:16:06 51°9.266 2°36.257 13.5 289 4.8 101410 88
2005-03-11 09:16:12 51°9.27 2°36.251 14.7 294 4.8 101410 88
2005-03-11 09:16:16 51°9.274 2°36.245 15.9 298 4.8 101410 88
2005-03-11 09:16:22 51°9.278 2°36.239 14.3 291 4.8 101410 88
2005-03-11 09:16:26 51°9.28 2°36.235 15.4 295 4.8 101410 88
2005-03-11 09:16:31 51°9.283 2°36.23 15.9 288 4.8 101400 88